createdAt,value
2018-06-25T00:01:12.716Z,16.70
2018-06-25T00:03:40.825Z,16.60
2018-06-25T00:06:08.989Z,16.60
2018-06-25T00:08:37.125Z,16.60
2018-06-25T00:11:05.269Z,16.60
2018-06-25T00:13:33.482Z,16.50
2018-06-25T00:16:01.634Z,16.50
2018-06-25T00:18:29.773Z,16.50
2018-06-25T00:20:57.977Z,16.50
2018-06-25T00:23:26.098Z,16.50
2018-06-25T00:25:54.230Z,16.40
2018-06-25T00:28:22.342Z,16.50
2018-06-25T00:30:50.475Z,16.40
2018-06-25T00:33:18.589Z,16.40
2018-06-25T00:35:46.781Z,16.40
2018-06-25T00:38:14.905Z,16.40
2018-06-25T00:40:43.017Z,16.40
2018-06-25T00:43:11.151Z,16.40
2018-06-25T00:45:39.269Z,16.40
2018-06-25T00:48:07.377Z,16.30
2018-06-25T00:50:35.502Z,16.30
2018-06-25T00:53:03.631Z,16.30
2018-06-25T00:55:31.753Z,16.20
2018-06-25T00:57:59.865Z,16.20
2018-06-25T01:00:27.985Z,16.10
2018-06-25T01:02:56.113Z,16.20
2018-06-25T01:05:24.230Z,16.10
2018-06-25T01:07:52.361Z,16.10
2018-06-25T01:10:20.487Z,16.10
2018-06-25T01:12:48.619Z,16.00
2018-06-25T01:15:16.745Z,16.00
2018-06-25T01:17:44.877Z,16.00
2018-06-25T01:20:12.989Z,16.00
2018-06-25T01:22:41.129Z,16.00
2018-06-25T01:25:09.245Z,16.00
2018-06-25T01:27:37.367Z,15.90
2018-06-25T01:30:05.515Z,16.00
2018-06-25T01:32:33.649Z,15.90
2018-06-25T01:35:01.782Z,15.90
2018-06-25T01:37:29.906Z,15.80
2018-06-25T01:39:58.026Z,15.80
2018-06-25T01:42:26.197Z,15.80
2018-06-25T01:44:54.330Z,15.80
2018-06-25T01:47:22.449Z,15.80
2018-06-25T01:49:50.570Z,15.80
2018-06-25T01:52:18.691Z,15.70
2018-06-25T01:54:46.801Z,15.70
2018-06-25T01:57:14.933Z,15.70
2018-06-25T01:59:43.054Z,15.60
2018-06-25T02:02:11.178Z,15.70
2018-06-25T02:04:39.302Z,15.70
2018-06-25T02:07:07.435Z,15.70
2018-06-25T02:09:35.549Z,15.60
2018-06-25T02:12:03.670Z,15.50
2018-06-25T02:14:31.773Z,15.50
2018-06-25T02:16:59.914Z,15.50
2018-06-25T02:19:28.035Z,15.40
2018-06-25T02:21:56.147Z,15.40
2018-06-25T02:24:24.276Z,15.40
2018-06-25T02:26:52.412Z,15.40
2018-06-25T02:29:20.520Z,15.40
2018-06-25T02:31:48.646Z,15.40
2018-06-25T02:34:16.745Z,15.30
2018-06-25T02:36:44.837Z,15.30
2018-06-25T02:39:12.965Z,15.20
2018-06-25T02:41:41.103Z,15.30
2018-06-25T02:44:09.225Z,15.30
2018-06-25T02:46:37.725Z,15.20
2018-06-25T02:49:05.861Z,15.20
2018-06-25T02:51:34.115Z,15.10
2018-06-25T02:54:02.271Z,15.10
2018-06-25T02:56:30.384Z,15.00
2018-06-25T02:58:58.490Z,15.00
2018-06-25T03:01:26.612Z,14.90
2018-06-25T03:03:54.737Z,15.00
2018-06-25T03:06:22.870Z,14.90
2018-06-25T03:08:50.999Z,14.90
2018-06-25T03:11:19.118Z,14.80
2018-06-25T03:13:47.242Z,14.80
2018-06-25T03:16:15.381Z,14.70
2018-06-25T03:18:43.554Z,14.60
2018-06-25T03:21:11.656Z,14.60
2018-06-25T03:23:39.789Z,14.60
2018-06-25T03:26:07.910Z,14.50
2018-06-25T03:28:36.039Z,14.50
2018-06-25T03:31:04.169Z,14.40
2018-06-25T03:33:32.288Z,14.50
2018-06-25T03:36:00.417Z,14.50
2018-06-25T03:38:28.558Z,14.50
2018-06-25T03:40:56.696Z,14.60
2018-06-25T03:43:24.856Z,14.60
2018-06-25T03:45:52.932Z,14.60
2018-06-25T03:48:21.041Z,14.60
2018-06-25T03:50:49.157Z,14.60
2018-06-25T03:53:17.285Z,14.60
2018-06-25T03:55:45.408Z,14.60
2018-06-25T03:58:13.534Z,14.60
2018-06-25T04:00:41.666Z,14.60
2018-06-25T04:03:09.798Z,14.50
2018-06-25T04:05:37.938Z,14.60
2018-06-25T04:08:06.070Z,14.50
2018-06-25T04:10:34.218Z,14.60
2018-06-25T04:13:02.346Z,14.60
2018-06-25T04:15:30.454Z,14.70
2018-06-25T04:17:58.590Z,14.70
2018-06-25T04:20:26.714Z,14.70
2018-06-25T04:22:54.819Z,14.80
2018-06-25T04:25:22.949Z,14.70
2018-06-25T04:27:51.225Z,14.90
2018-06-25T04:30:19.377Z,14.90
2018-06-25T04:32:47.494Z,15.00
2018-06-25T04:35:15.621Z,15.00
2018-06-25T04:37:43.757Z,14.90
2018-06-25T04:40:11.886Z,14.80
2018-06-25T04:42:40.025Z,14.90
2018-06-25T04:45:08.154Z,14.90
2018-06-25T04:47:36.310Z,14.90
2018-06-25T04:50:04.461Z,14.90
2018-06-25T04:52:32.588Z,14.90
2018-06-25T04:55:00.689Z,14.90
2018-06-25T04:57:28.811Z,15.00
2018-06-25T04:59:56.922Z,14.90
2018-06-25T05:02:26.068Z,14.90
2018-06-25T05:04:54.191Z,15.00
2018-06-25T05:07:22.311Z,15.30
2018-06-25T05:09:50.422Z,15.50
2018-06-25T05:12:18.554Z,15.60
2018-06-25T05:14:46.685Z,15.70
2018-06-25T05:17:14.815Z,15.70
2018-06-25T05:19:42.911Z,15.60
2018-06-25T05:22:11.064Z,15.70
2018-06-25T05:24:39.199Z,15.80
2018-06-25T05:27:07.327Z,15.80
2018-06-25T05:29:35.425Z,15.70
2018-06-25T05:32:03.549Z,15.80
2018-06-25T05:34:31.677Z,15.80
2018-06-25T05:36:59.820Z,15.80
2018-06-25T05:39:27.953Z,15.90
2018-06-25T05:41:56.087Z,15.90
2018-06-25T05:44:24.218Z,16.00
2018-06-25T05:46:52.358Z,16.10
2018-06-25T05:49:20.541Z,15.90
2018-06-25T05:51:48.684Z,15.90
2018-06-25T05:54:16.821Z,15.90
2018-06-25T05:56:44.961Z,15.90
2018-06-25T05:59:13.078Z,16.10
2018-06-25T06:01:41.191Z,16.30
2018-06-25T06:04:09.321Z,16.50
2018-06-25T06:06:37.490Z,16.80
2018-06-25T06:09:07.743Z,16.80
2018-06-25T06:11:35.926Z,16.50
2018-06-25T06:14:04.084Z,16.60
2018-06-25T06:16:32.193Z,16.80
2018-06-25T06:19:00.313Z,17.00
2018-06-25T06:21:28.428Z,17.20
2018-06-25T06:23:56.581Z,17.60
2018-06-25T06:26:24.739Z,17.60
2018-06-25T06:28:52.821Z,17.80
2018-06-25T06:31:20.954Z,17.60
2018-06-25T06:33:49.070Z,17.50
2018-06-25T06:36:17.195Z,17.40
2018-06-25T06:38:45.314Z,17.50
2018-06-25T06:41:13.417Z,17.60
2018-06-25T06:46:09.483Z,17.50
2018-06-25T06:48:37.601Z,17.80
2018-06-25T06:51:05.737Z,17.80
2018-06-25T06:53:33.863Z,17.80
2018-06-25T06:56:01.986Z,18.10
2018-06-25T06:58:30.109Z,18.20
2018-06-25T07:00:58.236Z,18.00
2018-06-25T07:03:26.368Z,18.00
2018-06-25T07:05:54.489Z,18.00
2018-06-25T07:08:22.634Z,18.10
2018-06-25T07:10:50.745Z,18.10
2018-06-25T07:13:18.889Z,18.20
2018-06-25T07:15:47.009Z,18.50
2018-06-25T07:18:15.156Z,18.70
2018-06-25T07:20:43.381Z,18.30
2018-06-25T07:23:11.416Z,18.20
2018-06-25T07:25:39.552Z,17.90
2018-06-25T07:28:07.762Z,18.20
2018-06-25T07:30:36.022Z,18.30
2018-06-25T07:33:04.173Z,18.40
2018-06-25T07:35:32.402Z,18.30
2018-06-25T07:38:00.533Z,18.20
2018-06-25T07:40:28.678Z,18.00
2018-06-25T07:42:56.802Z,18.00
2018-06-25T07:45:24.957Z,17.90
2018-06-25T07:47:53.087Z,17.70
2018-06-25T07:50:21.214Z,17.70
2018-06-25T07:52:49.378Z,17.70
2018-06-25T07:55:17.474Z,17.70
2018-06-25T07:57:45.597Z,17.70
2018-06-25T08:00:13.718Z,17.90
2018-06-25T08:02:41.849Z,18.00
2018-06-25T08:05:10.286Z,18.20
2018-06-25T08:07:38.415Z,18.00
2018-06-25T08:10:06.630Z,18.60
2018-06-25T08:12:34.738Z,18.80
2018-06-25T08:15:02.857Z,18.60
2018-06-25T08:17:30.982Z,18.70
2018-06-25T08:19:59.127Z,18.80
2018-06-25T08:22:27.249Z,18.70
2018-06-25T08:24:55.381Z,18.50
2018-06-25T08:27:23.540Z,18.60
2018-06-25T08:29:51.786Z,19.50
2018-06-25T08:32:19.833Z,19.00
2018-06-25T08:34:47.937Z,19.00
2018-06-25T08:37:16.134Z,19.10
2018-06-25T08:39:44.266Z,18.80
2018-06-25T08:42:12.410Z,18.80
2018-06-25T08:44:40.539Z,19.20
2018-06-25T08:47:08.653Z,19.10
2018-06-25T08:49:36.761Z,19.60
2018-06-25T08:52:04.920Z,19.80
2018-06-25T08:54:33.342Z,19.40
2018-06-25T08:57:01.568Z,19.60
2018-06-25T08:59:29.846Z,19.60
2018-06-25T09:01:57.995Z,19.60
2018-06-25T09:04:26.208Z,19.30
2018-06-25T09:06:54.390Z,19.30
2018-06-25T09:09:22.531Z,19.50
2018-06-25T09:11:50.679Z,20.30
2018-06-25T09:14:18.793Z,21.20
2018-06-25T09:16:46.936Z,22.00
2018-06-25T09:19:15.054Z,22.30
2018-06-25T09:21:43.186Z,22.30
2018-06-25T09:24:12.116Z,21.40
2018-06-25T09:26:41.313Z,21.30
2018-06-25T09:29:10.507Z,20.80
2018-06-25T09:31:38.664Z,20.50
2018-06-25T09:34:12.306Z,20.70
2018-06-25T09:36:40.999Z,21.00
2018-06-25T09:41:39.151Z,22.30
2018-06-25T09:44:07.540Z,23.10
2018-06-25T09:46:35.818Z,23.50
2018-06-25T09:49:03.970Z,22.90
2018-06-25T09:51:32.193Z,22.80
2018-06-25T09:54:00.315Z,23.20
2018-06-25T09:56:28.456Z,22.10
2018-06-25T09:58:56.652Z,22.30
2018-06-25T10:01:24.790Z,22.00
2018-06-25T10:03:52.922Z,21.90
2018-06-25T10:06:21.070Z,23.90
2018-06-25T10:08:49.201Z,24.10
2018-06-25T10:11:17.317Z,23.00
2018-06-25T10:13:45.502Z,22.60
2018-06-25T10:16:13.622Z,23.00
2018-06-25T10:18:41.766Z,23.00
2018-06-25T10:21:09.887Z,22.60
2018-06-25T10:23:38.041Z,22.00
2018-06-25T10:26:06.311Z,22.00
2018-06-25T10:28:34.492Z,21.90
2018-06-25T10:31:02.582Z,22.00
2018-06-25T10:33:30.730Z,22.00
2018-06-25T10:35:58.857Z,22.10
2018-06-25T10:38:27.013Z,22.20
2018-06-25T10:40:55.125Z,22.10
2018-06-25T10:43:23.266Z,22.30
2018-06-25T10:45:51.381Z,22.30
2018-06-25T10:48:19.545Z,22.10
2018-06-25T10:50:47.677Z,22.00
2018-06-25T10:53:15.891Z,22.30
2018-06-25T10:55:44.034Z,22.60
2018-06-25T10:58:12.214Z,22.90
2018-06-25T11:00:40.288Z,22.70
2018-06-25T11:03:08.466Z,22.70
2018-06-25T11:05:36.622Z,23.10
2018-06-25T11:08:04.743Z,23.80
2018-06-25T11:10:32.871Z,23.20
2018-06-25T11:13:01.046Z,23.50
2018-06-25T11:15:29.142Z,24.40
2018-06-25T11:20:25.230Z,24.00
2018-06-25T11:22:53.338Z,24.90
2018-06-25T11:25:21.499Z,24.40
2018-06-25T11:27:49.640Z,24.60
2018-06-25T11:30:17.758Z,24.50
2018-06-25T11:32:45.907Z,23.20
2018-06-25T11:35:14.036Z,24.80
2018-06-25T11:37:42.155Z,23.40
2018-06-25T11:40:10.296Z,23.00
2018-06-25T11:42:38.413Z,23.20
2018-06-25T11:45:06.549Z,23.00
2018-06-25T11:47:34.666Z,22.80
2018-06-25T11:50:02.811Z,22.70
2018-06-25T11:52:30.909Z,22.50
2018-06-25T11:54:59.037Z,22.40
2018-06-25T11:57:27.160Z,22.90
2018-06-25T11:59:55.306Z,21.70
2018-06-25T12:02:23.483Z,22.70
2018-06-25T12:04:51.602Z,22.90
2018-06-25T12:07:19.737Z,22.90
2018-06-25T12:09:47.860Z,23.40
2018-06-25T12:12:15.979Z,23.10
2018-06-25T12:14:44.130Z,22.60
2018-06-25T12:17:12.289Z,22.20
2018-06-25T12:19:40.449Z,22.80
2018-06-25T12:22:09.017Z,22.70
2018-06-25T12:24:37.111Z,22.30
2018-06-25T12:27:05.249Z,23.50
2018-06-25T12:32:01.332Z,25.40
2018-06-25T12:34:29.409Z,25.10
2018-06-25T12:36:57.867Z,25.20
2018-06-25T12:39:25.991Z,24.10
2018-06-25T12:41:54.117Z,23.60
2018-06-25T12:44:22.256Z,23.10
2018-06-25T12:46:50.389Z,22.80
2018-06-25T12:49:18.600Z,23.50
2018-06-25T12:51:46.719Z,24.70
2018-06-25T12:54:14.877Z,25.90
2018-06-25T12:56:43.005Z,24.80
2018-06-25T12:59:11.126Z,24.20
2018-06-25T13:01:39.249Z,23.60
2018-06-25T13:04:07.374Z,23.50
2018-06-25T13:06:35.506Z,24.50
2018-06-25T13:09:04.242Z,25.00
2018-06-25T13:11:32.414Z,25.20
2018-06-25T13:14:00.542Z,25.30
2018-06-25T13:16:28.683Z,25.50
2018-06-25T13:18:56.823Z,24.90
2018-06-25T13:21:24.960Z,24.80
2018-06-25T13:23:53.081Z,26.20
2018-06-25T13:26:21.218Z,25.80
2018-06-25T13:28:49.369Z,26.00
2018-06-25T13:33:45.422Z,25.80
2018-06-25T13:36:13.577Z,25.70
2018-06-25T13:38:41.744Z,25.30
2018-06-25T13:41:09.882Z,25.10
2018-06-25T13:43:38.101Z,25.40
2018-06-25T13:46:06.381Z,25.20
2018-06-25T13:48:34.510Z,25.30
2018-06-25T13:51:02.766Z,25.20
2018-06-25T13:53:30.903Z,25.90
2018-06-25T13:55:59.042Z,25.60
2018-06-25T13:58:27.282Z,25.50
2018-06-25T14:00:55.430Z,25.10
2018-06-25T14:03:23.565Z,24.10
2018-06-25T14:05:51.702Z,23.70
2018-06-25T14:08:19.827Z,24.00
2018-06-25T14:10:47.965Z,24.60
2018-06-25T14:13:16.114Z,25.30
2018-06-25T14:15:44.232Z,25.00
2018-06-25T14:18:12.364Z,25.40
2018-06-25T14:20:40.530Z,26.00
2018-06-25T14:23:08.730Z,25.60
2018-06-25T14:25:42.381Z,25.10
2018-06-25T14:28:15.886Z,24.80
2018-06-25T14:30:49.528Z,24.20
2018-06-25T14:33:21.893Z,24.40
2018-06-25T14:35:50.000Z,23.60
2018-06-25T14:38:18.169Z,23.50
2018-06-25T14:40:46.364Z,23.70
2018-06-25T14:43:14.429Z,24.40
2018-06-25T14:45:42.545Z,24.50
2018-06-25T14:48:10.687Z,24.40
2018-06-25T14:50:38.789Z,25.00
2018-06-25T14:53:06.910Z,24.90
2018-06-25T14:55:35.115Z,24.70
2018-06-25T14:58:03.221Z,24.40
2018-06-25T15:00:31.360Z,24.00
2018-06-25T15:02:59.510Z,23.70
2018-06-25T15:05:27.619Z,23.70
2018-06-25T15:07:55.745Z,23.40
2018-06-25T15:10:23.893Z,23.60
2018-06-25T15:12:52.033Z,23.60
2018-06-25T15:15:20.174Z,23.50
2018-06-25T15:17:48.314Z,23.50
2018-06-25T15:20:16.513Z,23.70
2018-06-25T15:22:44.646Z,23.70
2018-06-25T15:25:12.774Z,23.50
2018-06-25T15:27:41.000Z,23.40
2018-06-25T15:30:09.165Z,23.00
2018-06-25T15:32:37.273Z,22.60
2018-06-25T15:35:05.413Z,22.50
2018-06-25T15:37:33.565Z,22.50
2018-06-25T15:40:01.701Z,22.60
2018-06-25T15:44:57.898Z,22.50
2018-06-25T15:47:26.053Z,22.30
2018-06-25T15:49:54.174Z,22.30
2018-06-25T15:52:22.312Z,22.50
2018-06-25T15:54:50.462Z,22.70
2018-06-25T15:57:19.269Z,22.70
2018-06-25T15:59:47.424Z,22.70
2018-06-25T16:02:15.546Z,22.90
2018-06-25T16:04:43.685Z,22.90
2018-06-25T16:07:11.891Z,22.90
2018-06-25T16:09:40.034Z,22.70
2018-06-25T16:12:07.829Z,22.90
2018-06-25T16:14:35.968Z,23.00
2018-06-25T16:17:04.156Z,23.10
2018-06-25T16:19:32.298Z,23.00
2018-06-25T16:22:00.519Z,22.90
2018-06-25T16:24:28.752Z,23.10
2018-06-25T16:26:56.869Z,23.00
2018-06-25T16:29:25.044Z,23.20
2018-06-25T16:31:53.496Z,23.10
2018-06-25T16:34:26.385Z,23.10
2018-06-25T16:36:55.080Z,23.20
2018-06-25T16:39:23.214Z,23.20
2018-06-25T16:41:51.313Z,22.90
2018-06-25T16:44:19.544Z,22.90
2018-06-25T16:46:48.199Z,22.80
2018-06-25T16:49:16.339Z,22.90
2018-06-25T16:51:44.438Z,23.00
2018-06-25T16:54:12.557Z,23.10
2018-06-25T16:56:40.677Z,23.00
2018-06-25T16:59:08.790Z,22.90
2018-06-25T17:01:36.902Z,22.70
2018-06-25T17:04:05.041Z,22.60
2018-06-25T17:06:33.135Z,22.50
2018-06-25T17:09:01.233Z,22.50
2018-06-25T17:11:29.395Z,22.50
2018-06-25T17:13:57.776Z,22.40
2018-06-25T17:16:26.073Z,22.40
2018-06-25T17:18:54.240Z,22.40
2018-06-25T17:21:22.463Z,22.40
2018-06-25T17:23:52.146Z,22.50
2018-06-25T17:26:22.617Z,22.50
2018-06-25T17:28:51.944Z,22.50
2018-06-25T17:31:20.073Z,22.30
2018-06-25T17:33:48.360Z,22.00
2018-06-25T17:36:16.523Z,22.00
2018-06-25T17:38:44.698Z,21.90
2018-06-25T17:41:12.905Z,21.80
2018-06-25T17:43:41.099Z,21.70
2018-06-25T17:46:09.310Z,21.60
2018-06-25T17:48:37.489Z,21.50
2018-06-25T17:51:06.099Z,21.40
2018-06-25T17:53:34.293Z,21.40
2018-06-25T17:56:02.454Z,21.50
2018-06-25T17:58:30.609Z,21.60
2018-06-25T18:00:58.775Z,21.60
2018-06-25T18:03:26.915Z,21.70
2018-06-25T18:05:55.071Z,21.60
2018-06-25T18:08:23.215Z,21.60
2018-06-25T18:10:51.377Z,21.50
2018-06-25T18:13:19.523Z,21.50
2018-06-25T18:15:47.661Z,21.50
2018-06-25T18:18:15.805Z,21.40
2018-06-25T18:20:44.115Z,21.40
2018-06-25T18:23:12.222Z,21.40
2018-06-25T18:25:40.657Z,21.40
2018-06-25T18:28:08.892Z,21.30
2018-06-25T18:30:37.182Z,21.20
2018-06-25T18:33:05.617Z,21.20
2018-06-25T18:35:33.769Z,21.10
2018-06-25T18:38:02.066Z,21.10
2018-06-25T18:40:30.280Z,21.00
2018-06-25T18:42:58.473Z,20.90
2018-06-25T18:45:27.016Z,20.80
2018-06-25T18:47:55.125Z,20.70
2018-06-25T18:50:23.270Z,20.70
2018-06-25T18:52:51.437Z,20.60
2018-06-25T18:55:19.786Z,20.40
2018-06-25T18:57:47.927Z,20.40
2018-06-25T19:00:16.099Z,20.30
2018-06-25T19:02:44.245Z,20.20
2018-06-25T19:05:12.406Z,20.10
2018-06-25T19:07:40.547Z,20.00
2018-06-25T19:10:08.693Z,19.90
2018-06-25T19:12:36.857Z,19.80
2018-06-25T19:15:05.558Z,19.80
2018-06-25T19:17:33.706Z,19.70
2018-06-25T19:20:01.820Z,19.60
2018-06-25T19:22:29.947Z,19.40
2018-06-25T19:24:58.051Z,19.30
2018-06-25T19:27:27.098Z,19.20
2018-06-25T19:29:55.201Z,19.10
2018-06-25T19:32:23.400Z,19.10
2018-06-25T19:34:51.501Z,19.00
2018-06-25T19:37:19.657Z,19.10
2018-06-25T19:39:47.825Z,19.00
2018-06-25T19:42:15.963Z,18.90
2018-06-25T19:44:44.054Z,18.80
2018-06-25T19:47:12.183Z,18.80
2018-06-25T19:49:40.317Z,18.70
2018-06-25T19:52:08.457Z,18.50
2018-06-25T19:54:36.609Z,18.50
2018-06-25T19:57:04.839Z,18.20
2018-06-25T19:59:32.994Z,17.90
2018-06-25T20:02:01.098Z,17.80
2018-06-25T20:04:29.222Z,17.70
2018-06-25T20:06:57.376Z,17.60
2018-06-25T20:09:25.549Z,17.40
2018-06-25T20:11:53.655Z,17.30
2018-06-25T20:14:21.762Z,17.20
2018-06-25T20:16:49.953Z,17.10
2018-06-25T20:19:18.183Z,16.90
2018-06-25T20:21:46.316Z,16.80
2018-06-25T20:24:14.485Z,16.70
2018-06-25T20:26:42.653Z,16.50
2018-06-25T20:29:10.888Z,16.40
2018-06-25T20:31:38.945Z,16.30
2018-06-25T20:34:07.096Z,16.20
2018-06-25T20:36:35.222Z,16.10
2018-06-25T20:39:03.722Z,15.90
2018-06-25T20:41:31.913Z,15.90
2018-06-25T20:44:00.030Z,15.80
2018-06-25T20:46:28.197Z,15.80
2018-06-25T20:48:56.490Z,15.80
2018-06-25T20:51:24.629Z,15.70
2018-06-25T20:53:52.779Z,15.70
2018-06-25T20:56:20.885Z,15.60
2018-06-25T20:58:49.035Z,15.50
2018-06-25T21:01:17.384Z,15.30
2018-06-25T21:03:45.705Z,15.20
2018-06-25T21:06:13.841Z,15.20
2018-06-25T21:08:41.994Z,15.20
2018-06-25T21:11:10.224Z,15.20
2018-06-25T21:13:38.368Z,15.10
2018-06-25T21:16:06.506Z,15.00
2018-06-25T21:18:34.701Z,14.90
2018-06-25T21:21:02.982Z,14.90
2018-06-25T21:23:33.521Z,14.80
2018-06-25T21:26:01.680Z,14.70
2018-06-25T21:28:29.873Z,14.60
2018-06-25T21:30:58.797Z,14.50
2018-06-25T21:33:26.932Z,14.40
2018-06-25T21:35:55.065Z,14.30
2018-06-25T21:38:23.206Z,14.30
2018-06-25T21:40:51.330Z,14.20
2018-06-25T21:43:19.477Z,14.30
2018-06-25T21:45:47.641Z,14.20
2018-06-25T21:48:15.816Z,14.10
2018-06-25T21:50:43.994Z,14.10
2018-06-25T21:53:12.126Z,14.00
2018-06-25T21:55:40.246Z,14.00
2018-06-25T21:58:08.386Z,14.00
2018-06-25T22:00:50.208Z,13.90
2018-06-25T22:03:18.426Z,13.90
2018-06-25T22:05:49.219Z,13.80
2018-06-25T22:08:17.385Z,13.80
2018-06-25T22:10:45.532Z,13.80
2018-06-25T22:13:13.696Z,13.80
2018-06-25T22:15:41.814Z,13.80
2018-06-25T22:18:10.090Z,13.80
2018-06-25T22:20:38.263Z,13.70
2018-06-25T22:23:06.400Z,13.70
2018-06-25T22:25:34.547Z,13.60
2018-06-25T22:28:02.669Z,13.60
2018-06-25T22:30:30.850Z,13.60
2018-06-25T22:32:58.987Z,13.50
2018-06-25T22:35:27.105Z,13.50
2018-06-25T22:37:55.237Z,13.50
2018-06-25T22:40:23.409Z,13.40
2018-06-25T22:42:51.514Z,13.40
2018-06-25T22:45:19.624Z,13.40
2018-06-25T22:47:47.749Z,13.40
2018-06-25T22:50:15.867Z,13.30
2018-06-25T22:52:43.985Z,13.30
2018-06-25T22:55:12.077Z,13.30
2018-06-25T22:57:40.205Z,13.20
2018-06-25T23:00:08.302Z,13.20
2018-06-25T23:02:36.423Z,13.10
2018-06-25T23:05:04.557Z,12.90
2018-06-25T23:07:32.678Z,12.90
2018-06-25T23:10:00.782Z,12.90
2018-06-25T23:12:28.886Z,12.90
2018-06-25T23:14:56.983Z,12.90
2018-06-25T23:17:25.131Z,12.90
2018-06-25T23:19:53.275Z,12.80
2018-06-25T23:22:21.398Z,12.80
2018-06-25T23:24:49.537Z,12.80
2018-06-25T23:27:17.677Z,12.80
2018-06-25T23:29:45.802Z,12.80
2018-06-25T23:32:13.958Z,12.80
2018-06-25T23:34:42.113Z,12.80
2018-06-25T23:37:10.251Z,12.80
2018-06-25T23:39:38.390Z,12.90
2018-06-25T23:42:06.581Z,12.80
2018-06-25T23:44:34.712Z,12.70
2018-06-25T23:47:02.871Z,12.70
2018-06-25T23:49:31.002Z,12.60
2018-06-25T23:51:59.149Z,12.70
2018-06-25T23:54:27.310Z,12.70
2018-06-25T23:56:55.429Z,12.60
2018-06-25T23:59:23.558Z,12.50
